createdAt,value
2022-12-26T00:02:28.822Z,67.38
2022-12-26T00:07:31.449Z,66.07
2022-12-26T00:12:35.577Z,68.50
2022-12-26T00:17:38.276Z,63.50
2022-12-26T00:22:41.100Z,56.50
2022-12-26T00:27:45.099Z,67.35
2022-12-26T00:32:47.678Z,64.55
2022-12-26T00:37:50.377Z,71.30
2022-12-26T00:42:54.554Z,74.57
2022-12-26T00:47:57.178Z,70.53
2022-12-26T00:52:59.873Z,67.37
2022-12-26T00:58:03.960Z,65.50
2022-12-26T01:03:07.884Z,65.22
2022-12-26T01:08:20.404Z,58.50
2022-12-26T01:13:27.873Z,67.95
2022-12-26T01:18:30.713Z,73.35
2022-12-26T01:23:45.393Z,67.80
2022-12-26T01:28:50.100Z,70.18
2022-12-26T01:33:52.844Z,67.50
2022-12-26T01:38:55.489Z,64.30
2022-12-26T01:44:00.297Z,68.70
2022-12-26T01:49:07.769Z,90.80
2022-12-26T01:54:39.609Z,80.35
2022-12-26T01:59:42.215Z,69.97
2022-12-26T02:05:04.027Z,75.80
2022-12-26T02:10:08.670Z,67.63
2022-12-26T02:15:13.951Z,69.45
2022-12-26T02:20:23.910Z,72.57
2022-12-26T02:25:36.431Z,76.18
2022-12-26T02:30:45.996Z,73.18
2022-12-26T02:36:15.840Z,74.95
2022-12-26T02:41:24.943Z,69.22
2022-12-26T02:47:00.809Z,68.55
2022-12-26T02:52:24.871Z,77.18
2022-12-26T02:58:04.069Z,74.72
2022-12-26T03:03:28.769Z,83.10
2022-12-26T03:08:56.331Z,73.82
2022-12-26T03:14:03.810Z,83.00
2022-12-26T03:19:10.070Z,89.50
2022-12-26T03:24:13.717Z,91.20
2022-12-26T03:29:35.400Z,84.50
2022-12-26T03:34:42.234Z,74.70
2022-12-26T03:40:07.766Z,78.15
2022-12-26T03:45:33.140Z,83.80
2022-12-26T03:50:56.488Z,75.00
2022-12-26T03:56:22.288Z,71.47
2022-12-26T04:01:44.180Z,67.88
2022-12-26T04:07:22.472Z,65.25
2022-12-26T04:12:43.884Z,70.18
2022-12-26T04:18:06.145Z,67.80
2022-12-26T04:23:29.094Z,64.97
2022-12-26T04:28:48.897Z,61.97
2022-12-26T04:34:10.640Z,65.97
2022-12-26T04:39:32.337Z,63.67
2022-12-26T04:44:35.682Z,53.00
2022-12-26T04:49:56.732Z,52.17
2022-12-26T04:55:00.535Z,58.00
2022-12-26T05:00:03.003Z,46.00
2022-12-26T05:05:22.987Z,48.17
2022-12-26T05:10:27.774Z,53.53
2022-12-26T05:15:50.195Z,54.22
2022-12-26T05:21:24.669Z,53.83
2022-12-26T05:26:45.923Z,57.55
2022-12-26T05:31:48.560Z,57.67
2022-12-26T05:36:52.240Z,58.23
2022-12-26T05:41:56.154Z,60.10
2022-12-26T05:46:58.613Z,58.35
2022-12-26T05:52:01.110Z,59.40
2022-12-26T05:57:04.933Z,51.35
2022-12-26T06:02:07.530Z,51.47
2022-12-26T06:07:10.005Z,49.43
2022-12-26T06:12:13.723Z,54.10
2022-12-26T06:17:16.148Z,53.08
2022-12-26T06:22:18.525Z,55.28
2022-12-26T06:27:22.264Z,45.78
2022-12-26T06:32:24.725Z,49.17
2022-12-26T06:37:27.179Z,47.90
2022-12-26T06:42:30.980Z,49.13
2022-12-26T06:47:33.409Z,46.10
2022-12-26T06:52:35.881Z,38.97
2022-12-26T06:57:39.669Z,40.63
2022-12-26T07:02:42.109Z,35.85
2022-12-26T07:07:44.614Z,40.17
2022-12-26T07:12:48.808Z,31.00
2022-12-26T07:17:51.197Z,24.25
2022-12-26T07:22:54.983Z,27.42
2022-12-26T07:28:00.457Z,22.35
2022-12-26T07:33:02.937Z,22.30
2022-12-26T07:38:05.343Z,19.83
2022-12-26T07:43:09.130Z,20.83
2022-12-26T07:48:11.614Z,18.67
2022-12-26T07:53:14.071Z,17.48
2022-12-26T07:58:17.882Z,18.73
2022-12-26T08:03:20.433Z,18.92
2022-12-26T08:08:23.401Z,17.10
2022-12-26T08:13:27.162Z,20.42
2022-12-26T08:18:29.561Z,17.23
2022-12-26T08:23:32.017Z,15.38
2022-12-26T08:28:35.942Z,17.05
2022-12-26T08:33:38.332Z,15.90
2022-12-26T08:38:41.157Z,14.30
2022-12-26T08:44:25.195Z,11.60
2022-12-26T08:49:07.429Z,10.77
2022-12-26T08:54:09.844Z,12.13
2022-12-26T08:59:13.591Z,9.25
2022-12-26T09:04:16.339Z,8.52
2022-12-26T09:09:18.760Z,6.05
2022-12-26T09:14:22.475Z,5.17
2022-12-26T09:19:24.839Z,4.93
2022-12-26T09:24:27.258Z,5.57
2022-12-26T09:29:31.127Z,9.20
2022-12-26T09:34:33.499Z,4.45
2022-12-26T09:39:35.977Z,6.97
2022-12-26T09:44:44.925Z,7.30
2022-12-26T09:49:51.665Z,6.32
2022-12-26T09:54:55.063Z,7.75
2022-12-26T10:05:01.314Z,6.22
2022-12-26T10:10:10.255Z,6.55
2022-12-26T10:15:24.493Z,7.22
2022-12-26T10:20:32.652Z,9.38
2022-12-26T10:25:39.666Z,7.32
2022-12-26T10:30:42.873Z,9.30
2022-12-26T10:35:47.189Z,10.25
2022-12-26T10:40:51.350Z,6.05
2022-12-26T10:45:59.953Z,5.88
2022-12-26T10:51:04.207Z,8.85
2022-12-26T10:56:07.555Z,8.85
2022-12-26T11:01:28.712Z,8.23
2022-12-26T11:06:34.065Z,22.48
2022-12-26T11:11:51.603Z,8.88
2022-12-26T11:16:54.027Z,7.38
2022-12-26T11:22:14.766Z,11.48
2022-12-26T11:27:18.601Z,6.78
2022-12-26T11:32:21.460Z,6.28
2022-12-26T11:37:27.054Z,4.97
2022-12-26T11:42:29.591Z,3.97
2022-12-26T11:47:32.149Z,7.20
2022-12-26T11:52:37.785Z,4.03
2022-12-26T11:57:40.300Z,7.07
2022-12-26T12:02:42.990Z,7.88
2022-12-26T12:08:04.326Z,7.73
2022-12-26T12:13:09.042Z,6.38
2022-12-26T12:18:16.746Z,5.88
2022-12-26T12:23:29.713Z,9.02
2022-12-26T12:28:49.983Z,6.03
2022-12-26T12:33:55.287Z,7.63
2022-12-26T12:39:12.056Z,2.55
2022-12-26T12:44:16.944Z,3.80
2022-12-26T12:49:29.873Z,5.50
2022-12-26T12:54:40.265Z,3.50
2022-12-26T12:59:49.497Z,8.25
2022-12-26T13:04:55.835Z,3.83
2022-12-26T13:10:01.459Z,6.07
2022-12-26T13:15:07.957Z,4.20
2022-12-26T13:20:15.657Z,3.33
2022-12-26T13:25:19.964Z,4.15
2022-12-26T13:30:22.705Z,3.72
2022-12-26T13:35:43.778Z,3.97
2022-12-26T13:40:48.446Z,5.60
2022-12-26T13:45:53.772Z,5.20
2022-12-26T13:50:57.050Z,7.85
2022-12-26T13:56:02.278Z,10.30
2022-12-26T14:01:08.239Z,5.15
2022-12-26T14:06:19.040Z,9.77
2022-12-26T14:11:28.440Z,6.68
2022-12-26T14:16:33.646Z,14.55
2022-12-26T14:21:41.250Z,8.95
2022-12-26T14:26:47.936Z,7.70
2022-12-26T14:31:56.722Z,4.97
2022-12-26T14:37:02.845Z,7.97
2022-12-26T14:42:38.047Z,8.75
2022-12-26T14:47:42.760Z,8.90
2022-12-26T14:52:45.553Z,7.05
2022-12-26T14:57:51.948Z,5.30
2022-12-26T15:03:11.424Z,8.13
2022-12-26T15:08:23.888Z,6.43
2022-12-26T15:13:50.092Z,9.52
2022-12-26T15:19:07.785Z,6.45
2022-12-26T15:24:52.776Z,6.88
2022-12-26T15:30:02.444Z,6.65
2022-12-26T15:35:12.597Z,7.70
2022-12-26T15:40:16.239Z,9.07
2022-12-26T15:50:27.309Z,8.45
2022-12-26T15:55:50.796Z,8.85
2022-12-26T16:00:54.153Z,7.97
2022-12-26T16:06:00.315Z,6.25
2022-12-26T16:11:10.353Z,9.75
2022-12-26T16:16:13.014Z,8.98
2022-12-26T16:21:36.839Z,10.33
2022-12-26T16:26:41.512Z,5.73
2022-12-26T16:31:44.010Z,7.22
2022-12-26T16:36:49.501Z,10.95
2022-12-26T16:42:02.972Z,7.35
2022-12-26T16:47:07.172Z,21.20
2022-12-26T16:52:30.729Z,19.33
2022-12-26T16:57:36.279Z,14.90
2022-12-26T17:02:39.089Z,10.90
2022-12-26T17:07:45.280Z,9.13
2022-12-26T17:12:48.433Z,10.32
2022-12-26T17:17:50.921Z,8.80
2022-12-26T17:22:54.997Z,14.30
2022-12-26T17:28:17.775Z,7.32
2022-12-26T17:33:21.637Z,7.68
2022-12-26T17:38:26.327Z,30.98
2022-12-26T17:43:31.313Z,10.70
2022-12-26T17:48:33.829Z,14.02
2022-12-26T17:53:38.458Z,9.00
2022-12-26T17:58:41.081Z,13.75
2022-12-26T18:03:44.176Z,8.00
2022-12-26T18:08:48.037Z,14.70
2022-12-26T18:13:50.478Z,10.75
2022-12-26T18:18:52.997Z,12.80
2022-12-26T18:23:57.026Z,15.90
2022-12-26T18:28:59.785Z,9.38
2022-12-26T18:34:02.236Z,8.83
2022-12-26T18:39:06.826Z,6.68
2022-12-26T18:44:09.253Z,14.65
2022-12-26T18:49:18.253Z,11.15
2022-12-26T18:54:22.183Z,8.90
2022-12-26T18:59:24.660Z,7.97
2022-12-26T19:04:27.417Z,12.45
2022-12-26T19:09:31.225Z,12.63
2022-12-26T19:14:33.644Z,6.93
2022-12-26T19:19:36.063Z,8.55
2022-12-26T19:24:39.876Z,10.18
2022-12-26T19:29:42.296Z,8.00
2022-12-26T19:34:44.817Z,12.23
2022-12-26T19:39:48.574Z,21.20
2022-12-26T19:44:51.007Z,11.35
2022-12-26T19:49:53.373Z,11.55
2022-12-26T19:54:57.228Z,9.23
2022-12-26T19:59:59.653Z,10.55
2022-12-26T20:05:02.120Z,9.82
2022-12-26T20:10:06.519Z,17.83
2022-12-26T20:15:09.301Z,13.65
2022-12-26T20:20:11.748Z,7.43
2022-12-26T20:25:15.564Z,9.98
2022-12-26T20:30:18.075Z,14.27
2022-12-26T20:35:20.514Z,7.78
2022-12-26T20:40:25.455Z,11.57
2022-12-26T20:45:28.061Z,8.90
2022-12-26T20:50:30.470Z,7.28
2022-12-26T20:55:36.293Z,7.05
2022-12-26T21:00:44.828Z,9.38
2022-12-26T21:05:49.937Z,12.88
2022-12-26T21:10:53.847Z,13.00
2022-12-26T21:15:56.303Z,9.48
2022-12-26T21:20:58.726Z,15.27
2022-12-26T21:26:02.796Z,10.55
2022-12-26T21:31:06.896Z,7.40
2022-12-26T21:36:10.099Z,10.98
2022-12-26T21:41:13.911Z,11.88
2022-12-26T21:46:17.555Z,10.70
2022-12-26T21:51:20.942Z,10.02
2022-12-26T21:56:24.699Z,10.38
2022-12-26T22:01:27.448Z,10.93
2022-12-26T22:06:29.964Z,8.87
2022-12-26T22:11:51.819Z,6.70
2022-12-26T22:16:54.999Z,8.50
2022-12-26T22:21:57.442Z,8.80
2022-12-26T22:27:01.345Z,9.68
2022-12-26T22:32:03.874Z,8.98
2022-12-26T22:37:06.368Z,10.80
2022-12-26T22:42:10.105Z,11.20
2022-12-26T22:47:12.544Z,9.13
2022-12-26T22:52:16.089Z,12.18
2022-12-26T22:57:20.329Z,11.70
2022-12-26T23:02:22.899Z,10.52
2022-12-26T23:07:25.766Z,12.77
2022-12-26T23:12:45.028Z,11.17
2022-12-26T23:18:07.732Z,8.82
2022-12-26T23:23:10.469Z,13.30
2022-12-26T23:28:31.489Z,12.50
2022-12-26T23:33:33.940Z,10.13
2022-12-26T23:38:36.321Z,9.82
2022-12-26T23:43:40.095Z,9.57
2022-12-26T23:48:42.583Z,10.98
2022-12-26T23:53:44.967Z,10.82
2022-12-26T23:58:48.700Z,12.20
